Time;durP1;ratioP1;P1;durP2;ratioP2;P2;SDS_P1;SDS_P2;PMS_P1;PMS_P2;Temp;Humidity;BMP_temperature;BMP_pressure;BME280_temperature;BME280_humidity;BME280_pressure;Samples;Min_cycle;Max_cycle;Signal;HPM_P1;HPM_P2
2023/01/30 00:01:18;;;;;;;10.90;7.82;;;-0.70;99.90;;;;;;5050465;28;20194;-79
2023/01/30 00:03:44;;;;;;;14.07;8.35;;;-0.60;99.90;;;;;;5053313;28;20544;-79
2023/01/30 00:06:10;;;;;;;16.07;7.87;;;-0.60;99.90;;;;;;5051646;28;20183;-79
2023/01/30 00:08:35;;;;;;;10.40;7.28;;;-0.60;99.90;;;;;;5053036;28;20179;-78
2023/01/30 00:11:06;;;;;;;14.97;8.40;;;-0.70;99.90;;;;;;5034905;28;20188;-78
2023/01/30 00:13:32;;;;;;;7.93;5.55;;;-0.60;99.90;;;;;;5053608;28;20558;-79
2023/01/30 00:15:58;;;;;;;12.95;7.40;;;-0.60;99.90;;;;;;5052834;28;20664;-78
2023/01/30 00:18:23;;;;;;;9.57;6.97;;;-0.60;99.90;;;;;;5034234;28;20219;-78
2023/01/30 00:20:58;;;;;;;11.83;7.23;;;-0.60;99.90;;;;;;5053301;28;20180;-78
2023/01/30 00:23:25;;;;;;;11.15;7.32;;;-0.50;99.90;;;;;;5052884;28;20310;-78
2023/01/30 00:25:50;;;;;;;10.38;7.18;;;-0.50;99.90;;;;;;5050380;28;20616;-79
2023/01/30 00:28:16;;;;;;;12.63;7.63;;;-0.50;99.90;;;;;;5051975;28;20201;-79
2023/01/30 00:30:42;;;;;;;11.53;7.30;;;-0.50;99.90;;;;;;5049835;28;20652;-78
2023/01/30 00:33:09;;;;;;;8.77;6.63;;;-0.40;99.90;;;;;;5047725;28;20668;-77
2023/01/30 00:35:35;;;;;;;10.73;7.63;;;-0.40;99.90;;;;;;5047339;28;20188;-77
2023/01/30 00:38:01;;;;;;;9.80;6.03;;;-0.40;99.90;;;;;;5047376;28;20218;-76
2023/01/30 00:40:28;;;;;;;11.63;7.30;;;-0.40;99.90;;;;;;5050172;28;20441;-76
2023/01/30 00:48:27;;;;;;;10.85;7.30;;;-0.40;99.90;;;;;;5052111;28;20575;-78
2023/01/30 00:50:52;;;;;;;13.07;7.93;;;-0.40;99.90;;;;;;5053084;28;20660;-76
2023/01/30 00:53:18;;;;;;;10.73;6.80;;;-0.50;99.90;;;;;;5052723;28;20220;-77
2023/01/30 00:55:44;;;;;;;10.70;7.07;;;-0.50;99.90;;;;;;5034819;28;20665;-77
2023/01/30 00:58:11;;;;;;;9.60;6.40;;;-0.50;99.90;;;;;;5052955;28;20571;-76
2023/01/30 01:00:36;;;;;;;12.20;6.63;;;-0.50;99.90;;;;;;5051162;28;20278;-78
2023/01/30 01:03:03;;;;;;;10.67;6.80;;;-0.50;99.90;;;;;;5053490;28;20305;-77
2023/01/30 01:05:29;;;;;;;8.40;6.07;;;-0.50;99.90;;;;;;5052359;28;20188;-77
2023/01/30 01:07:55;;;;;;;7.67;5.90;;;-0.40;99.90;;;;;;5036030;28;20192;-78
2023/01/30 01:10:21;;;;;;;8.33;6.33;;;-0.50;99.90;;;;;;5053870;28;20430;-77
2023/01/30 01:12:49;;;;;;;9.65;6.05;;;-0.50;99.90;;;;;;5051800;28;20446;-77
2023/01/30 01:15:14;;;;;;;8.95;6.05;;;-0.40;99.90;;;;;;5053056;28;20187;-77
2023/01/30 01:17:41;;;;;;;9.07;5.47;;;-0.30;99.90;;;;;;5034940;28;20191;-77
2023/01/30 01:20:08;;;;;;;6.57;5.20;;;-0.30;99.90;;;;;;5052923;28;20354;-77
2023/01/30 01:22:34;;;;;;;9.10;6.72;;;-0.20;99.90;;;;;;5052563;28;20199;-77
2023/01/30 01:25:00;;;;;;;8.30;5.87;;;-0.20;99.90;;;;;;5052394;28;20180;-77
2023/01/30 01:27:27;;;;;;;7.20;5.70;;;-0.20;99.90;;;;;;5034158;28;20195;-77
2023/01/30 01:29:52;;;;;;;8.07;5.93;;;-0.10;99.90;;;;;;5052069;28;20915;-78
2023/01/30 01:32:20;;;;;;;8.03;5.37;;;-0.10;99.90;;;;;;5033697;28;20207;-77
2023/01/30 01:34:45;;;;;;;8.25;6.43;;;-0.10;99.90;;;;;;5050907;28;20692;-78
2023/01/30 01:37:11;;;;;;;8.10;5.53;;;-0.10;99.90;;;;;;5052049;28;20208;-77
2023/01/30 01:42:24;;;;;;;9.70;6.72;;;-0.10;99.90;;;;;;5052172;28;20238;-77
2023/01/30 01:45:08;;;;;;;8.10;5.80;;;0.10;99.90;;;;;;5050606;28;20215;-77
2023/01/30 01:47:34;;;;;;;8.93;6.25;;;-0.10;99.90;;;;;;5052018;28;20495;-78
2023/01/30 01:50:01;;;;;;;9.82;6.38;;;0.00;99.90;;;;;;5052104;28;20187;-79
2023/01/30 01:52:28;;;;;;;14.13;5.78;;;0.00;99.90;;;;;;5050475;28;20556;-78
2023/01/30 01:54:58;;;;;;;8.32;5.82;;;-0.10;99.90;;;;;;5052024;28;20180;-76
2023/01/30 01:57:30;;;;;;;13.02;7.20;;;-0.10;99.90;;;;;;5050588;28;20215;-76
2023/01/30 02:00:12;;;;;;;9.18;6.75;;;-0.10;99.90;;;;;;5050392;28;20695;-77
2023/01/30 02:02:41;;;;;;;10.45;6.50;;;-0.20;99.90;;;;;;5052105;28;20199;-76
2023/01/30 02:05:10;;;;;;;10.32;6.68;;;-0.20;99.90;;;;;;5050689;28;20194;-77
2023/01/30 02:08:05;;;;;;;11.45;8.13;;;-0.30;99.90;;;;;;5034932;28;20250;-78
2023/01/30 02:10:52;;;;;;;11.05;7.63;;;-0.30;99.90;;;;;;5042195;28;20195;-77
2023/01/30 02:13:19;;;;;;;13.15;8.10;;;-0.30;99.90;;;;;;5051535;28;20203;-77
2023/01/30 02:15:45;;;;;;;15.40;8.05;;;-0.30;99.90;;;;;;5050226;28;20536;-80
2023/01/30 02:18:12;;;;;;;11.63;7.77;;;-0.40;99.90;;;;;;5049920;28;20217;-79
2023/01/30 02:20:50;;;;;;;11.70;7.60;;;-0.40;99.90;;;;;;5051290;28;20863;-79
2023/01/30 02:23:30;;;;;;;9.45;6.90;;;-0.40;99.90;;;;;;5049499;28;20195;-80
2023/01/30 02:26:24;;;;;;;11.68;6.95;;;-0.40;99.90;;;;;;5049358;28;20278;-79
2023/01/30 02:29:01;;;;;;;9.20;6.82;;;-0.30;99.90;;;;;;5049214;28;20683;-80
2023/01/30 02:31:51;;;;;;;11.98;7.82;;;-0.30;99.90;;;;;;5049058;28;20203;-80
2023/01/30 02:34:42;;;;;;;8.35;6.57;;;-0.30;99.90;;;;;;5049433;28;20241;-80
2023/01/30 02:37:42;;;;;;;10.63;6.55;;;-0.30;99.90;;;;;;5048950;28;20183;-78
2023/01/30 02:40:35;;;;;;;12.45;7.13;;;-0.30;99.90;;;;;;5049042;28;20191;-76
2023/01/30 02:43:09;;;;;;;10.05;7.13;;;-0.30;99.90;;;;;;5050463;28;20196;-77
2023/01/30 02:45:42;;;;;;;10.70;6.85;;;-0.30;99.90;;;;;;5050423;28;20594;-77
2023/01/30 02:48:13;;;;;;;13.57;8.10;;;-0.40;99.90;;;;;;5050302;28;20254;-77
2023/01/30 02:51:06;;;;;;;10.07;6.93;;;-0.40;99.90;;;;;;5050485;28;20191;-76
2023/01/30 02:53:33;;;;;;;11.07;6.95;;;-0.30;99.90;;;;;;5046339;28;20272;-77
2023/01/30 02:55:59;;;;;;;11.10;7.68;;;-0.40;99.90;;;;;;5050324;28;20898;-79
2023/01/30 02:58:33;;;;;;;9.48;6.72;;;-0.40;99.90;;;;;;5049109;28;20215;-79
2023/01/30 03:01:26;;;;;;;10.32;6.80;;;-0.40;99.90;;;;;;5033115;28;20203;-79
2023/01/30 03:03:57;;;;;;;10.60;6.97;;;-0.40;99.90;;;;;;5037436;28;20229;-79
2023/01/30 03:06:23;;;;;;;11.82;7.55;;;-0.50;99.90;;;;;;5050307;28;20198;-79
2023/01/30 03:08:54;;;;;;;9.53;7.40;;;-0.50;99.90;;;;;;5048579;28;20657;-79
2023/01/30 03:11:24;;;;;;;9.68;6.60;;;-0.40;99.90;;;;;;5048395;28;20310;-79
2023/01/30 03:13:52;;;;;;;11.65;6.95;;;-0.50;99.90;;;;;;5049067;28;20187;-77
2023/01/30 03:16:25;;;;;;;12.75;6.80;;;-0.50;99.90;;;;;;5049979;28;20285;-77
2023/01/30 03:18:51;;;;;;;10.13;7.05;;;-0.50;99.90;;;;;;5050004;28;20216;-77
2023/01/30 03:21:17;;;;;;;12.03;7.07;;;-0.50;99.90;;;;;;5050113;28;20180;-77
2023/01/30 03:23:46;;;;;;;10.50;6.53;;;-0.50;99.90;;;;;;5048406;28;20176;-78
2023/01/30 03:26:22;;;;;;;9.75;6.90;;;-0.40;99.90;;;;;;5050593;28;20653;-77
2023/01/30 03:28:49;;;;;;;10.32;7.07;;;-0.50;99.90;;;;;;5049138;28;20191;-77
2023/01/30 03:31:15;;;;;;;9.73;6.30;;;-0.50;99.90;;;;;;5050454;28;20196;-77
2023/01/30 03:33:41;;;;;;;10.20;6.83;;;-0.50;99.90;;;;;;5050319;28;20563;-77
2023/01/30 03:36:08;;;;;;;11.50;7.55;;;-0.50;99.90;;;;;;5050765;28;20420;-77
2023/01/30 03:38:34;;;;;;;10.05;6.90;;;-0.50;99.90;;;;;;5050043;28;20199;-76
2023/01/30 03:41:00;;;;;;;11.00;6.78;;;-0.50;99.90;;;;;;5050369;28;20176;-77
2023/01/30 03:43:26;;;;;;;10.63;7.85;;;-0.60;99.90;;;;;;5050208;28;20279;-78
2023/01/30 03:45:51;;;;;;;12.33;7.70;;;-0.60;99.90;;;;;;5031944;28;20247;-78
2023/01/30 03:48:17;;;;;;;10.87;7.37;;;-0.60;99.90;;;;;;5048041;28;20623;-77
2023/01/30 03:50:42;;;;;;;10.37;7.10;;;-0.80;99.90;;;;;;5031497;28;20257;-77
2023/01/30 03:53:08;;;;;;;12.23;7.53;;;-0.90;99.90;;;;;;5048322;28;20209;-77
2023/01/30 03:55:34;;;;;;;10.67;6.93;;;-1.00;99.90;;;;;;5049437;28;20531;-78
2023/01/30 03:57:59;;;;;;;9.97;6.87;;;-1.10;99.90;;;;;;5048153;28;20215;-77
2023/01/30 04:00:25;;;;;;;12.77;7.70;;;-1.10;99.90;;;;;;5049052;28;20241;-77
2023/01/30 04:02:50;;;;;;;11.40;6.90;;;-1.00;99.90;;;;;;5047544;28;20315;-77
2023/01/30 04:05:17;;;;;;;14.13;7.87;;;-0.90;99.90;;;;;;5048901;28;20184;-77
2023/01/30 04:07:42;;;;;;;8.90;6.75;;;-0.80;99.90;;;;;;5049041;28;20176;-77
2023/01/30 04:10:09;;;;;;;10.53;7.10;;;-0.80;99.90;;;;;;5048798;28;20593;-76
2023/01/30 04:12:34;;;;;;;10.80;7.38;;;-0.70;99.90;;;;;;5030592;28;20215;-77
2023/01/30 04:15:00;;;;;;;11.00;7.53;;;-0.70;99.90;;;;;;5029900;28;20182;-77
2023/01/30 04:17:25;;;;;;;10.47;6.90;;;-0.70;99.90;;;;;;5047479;28;20666;-76
2023/01/30 04:19:51;;;;;;;10.80;7.17;;;-0.70;99.90;;;;;;5047568;28;20757;-77
2023/01/30 04:22:16;;;;;;;12.27;6.80;;;-0.70;99.90;;;;;;5047150;28;20196;-77
2023/01/30 04:24:42;;;;;;;10.63;6.87;;;-0.70;99.90;;;;;;5047319;28;20217;-77
2023/01/30 04:27:08;;;;;;;14.40;6.80;;;-0.70;99.90;;;;;;5047323;28;20199;-77
2023/01/30 04:29:34;;;;;;;10.73;6.37;;;-0.70;99.90;;;;;;5047274;28;20183;-76
2023/01/30 04:32:00;;;;;;;11.00;6.82;;;-0.70;99.90;;;;;;5047512;28;20214;-77
2023/01/30 04:34:26;;;;;;;10.40;7.10;;;-0.70;99.90;;;;;;5047599;28;20228;-77
2023/01/30 04:36:51;;;;;;;10.80;7.63;;;-0.70;99.90;;;;;;5032066;28;20184;-78
2023/01/30 04:39:17;;;;;;;9.00;5.50;;;-0.70;99.90;;;;;;5050006;28;20215;-78
2023/01/30 04:41:42;;;;;;;11.73;7.40;;;-0.80;99.90;;;;;;5033092;28;20586;-77
2023/01/30 04:44:08;;;;;;;10.10;6.80;;;-0.80;99.90;;;;;;5032389;28;20190;-78
2023/01/30 04:46:34;;;;;;;10.10;6.47;;;-0.80;99.90;;;;;;5032106;28;20232;-77
2023/01/30 04:48:59;;;;;;;10.13;7.00;;;-0.90;99.90;;;;;;5047840;28;20194;-77
2023/01/30 04:51:25;;;;;;;14.00;7.17;;;-1.00;99.90;;;;;;5047910;28;20238;-77
2023/01/30 04:53:50;;;;;;;11.93;6.97;;;-1.00;99.90;;;;;;5030547;28;20274;-77
2023/01/30 04:56:16;;;;;;;10.23;6.87;;;-1.00;99.90;;;;;;5047253;28;20282;-77
2023/01/30 04:58:41;;;;;;;12.33;7.50;;;-1.10;99.90;;;;;;5030038;28;20211;-77
2023/01/30 05:01:43;;;;;;;11.63;6.80;;;-1.10;99.90;;;;;;5029743;28;20203;-77
2023/01/30 05:04:09;;;;;;;11.77;7.35;;;-1.10;99.90;;;;;;5039205;28;20695;-77
2023/01/30 05:06:35;;;;;;;13.03;6.63;;;-1.10;99.90;;;;;;5047939;28;20267;-77
2023/01/30 05:09:02;;;;;;;14.25;9.23;;;-1.10;99.90;;;;;;5047844;28;20183;-77
2023/01/30 05:11:29;;;;;;;11.52;7.55;;;-1.10;99.90;;;;;;5048165;28;20256;-77
2023/01/30 05:13:54;;;;;;;6.93;5.32;;;-1.00;99.90;;;;;;5048114;28;20287;-76
2023/01/30 05:16:21;;;;;;;10.23;6.63;;;-1.00;99.90;;;;;;5047839;28;20278;-77
2023/01/30 05:18:48;;;;;;;11.27;6.80;;;-1.00;99.90;;;;;;5046424;28;20208;-77
2023/01/30 05:21:27;;;;;;;10.05;6.57;;;-1.00;99.90;;;;;;5048218;28;20652;-76
2023/01/30 05:23:53;;;;;;;12.00;7.45;;;-1.00;99.90;;;;;;5047008;28;20175;-77
2023/01/30 05:26:19;;;;;;;11.48;7.05;;;-1.00;99.90;;;;;;5048843;28;20729;-76
2023/01/30 05:28:53;;;;;;;9.02;6.65;;;-1.00;99.90;;;;;;5051662;28;20190;-77
2023/01/30 05:31:19;;;;;;;10.65;6.90;;;-0.90;99.90;;;;;;5050463;28;20278;-76
2023/01/30 05:33:47;;;;;;;9.90;7.30;;;-0.90;99.90;;;;;;5051408;28;20330;-77
2023/01/30 05:36:15;;;;;;;9.82;5.88;;;-0.90;99.90;;;;;;5051511;28;20649;-76
2023/01/30 05:38:43;;;;;;;9.98;6.78;;;-0.90;99.90;;;;;;5051517;28;20645;-77
2023/01/30 05:41:10;;;;;;;14.25;7.78;;;-0.90;99.90;;;;;;5051894;28;20203;-76
2023/01/30 05:43:35;;;;;;;10.05;6.90;;;-0.90;99.90;;;;;;5051679;28;20183;-76
2023/01/30 05:46:04;;;;;;;11.07;6.40;;;-0.80;99.90;;;;;;5033146;28;20188;-75
2023/01/30 05:48:30;;;;;;;9.68;6.35;;;-0.80;99.90;;;;;;5050057;28;20216;-76
2023/01/30 05:50:57;;;;;;;10.80;6.40;;;-0.80;99.90;;;;;;5050429;28;20203;-76
2023/01/30 05:53:26;;;;;;;8.70;6.32;;;-0.70;99.90;;;;;;5049606;28;20288;-76
2023/01/30 05:56:00;;;;;;;9.25;6.50;;;-0.70;99.90;;;;;;5051084;28;20260;-75
2023/01/30 05:58:26;;;;;;;10.35;6.13;;;-0.60;99.90;;;;;;5050806;28;20203;-75
2023/01/30 06:00:52;;;;;;;5.55;4.50;;;-0.50;99.90;;;;;;5032944;28;20656;-76
2023/01/30 06:03:18;;;;;;;6.25;4.57;;;-0.50;99.90;;;;;;5049333;28;20341;-76
2023/01/30 06:05:44;;;;;;;7.03;5.53;;;-0.40;99.90;;;;;;5050915;28;20198;-77
2023/01/30 06:08:10;;;;;;;6.37;4.43;;;-0.30;99.90;;;;;;5050862;28;20572;-77
2023/01/30 06:10:36;;;;;;;6.60;4.10;;;-0.20;99.90;;;;;;5050351;28;20677;-77
2023/01/30 06:13:02;;;;;;;4.53;3.97;;;-0.10;99.90;;;;;;5049544;28;20539;-75
2023/01/30 06:15:27;;;;;;;6.25;4.28;;;-0.10;99.90;;;;;;5049975;28;20430;-75
2023/01/30 06:17:53;;;;;;;6.47;4.60;;;0.00;99.90;;;;;;5049359;28;20188;-75
2023/01/30 06:20:19;;;;;;;5.70;3.60;;;0.00;99.90;;;;;;5049293;28;20286;-75
2023/01/30 06:22:44;;;;;;;6.73;4.67;;;0.10;99.90;;;;;;5049257;28;20203;-76
2023/01/30 06:25:10;;;;;;;6.33;4.13;;;0.10;99.90;;;;;;5049152;28;20306;-75
2023/01/30 06:27:36;;;;;;;6.20;4.10;;;0.10;99.90;;;;;;5048961;28;20222;-75
2023/01/30 06:30:02;;;;;;;4.77;3.67;;;0.10;99.90;;;;;;5048962;28;20188;-75
2023/01/30 06:32:27;;;;;;;5.47;3.80;;;0.10;99.90;;;;;;5048890;28;20199;-75
2023/01/30 06:34:53;;;;;;;5.53;4.07;;;0.20;99.90;;;;;;5048790;28;21145;-75
2023/01/30 06:37:19;;;;;;;4.03;3.20;;;0.20;99.90;;;;;;5048292;28;20538;-76
2023/01/30 06:39:45;;;;;;;7.07;3.33;;;0.20;99.90;;;;;;5048502;28;20353;-75
2023/01/30 06:42:10;;;;;;;4.57;3.90;;;0.20;99.90;;;;;;5031282;28;20294;-75
2023/01/30 06:44:36;;;;;;;3.30;2.90;;;0.30;99.90;;;;;;5049212;28;20187;-76
2023/01/30 06:47:02;;;;;;;4.77;3.40;;;0.30;99.90;;;;;;5047767;28;20663;-76
2023/01/30 06:49:27;;;;;;;6.00;3.67;;;0.40;99.90;;;;;;5047504;28;20184;-75
2023/01/30 06:51:53;;;;;;;3.70;2.90;;;0.40;99.90;;;;;;5048263;28;20214;-75
2023/01/30 06:54:18;;;;;;;2.77;2.50;;;0.50;99.90;;;;;;5047704;28;20192;-75
2023/01/30 06:56:44;;;;;;;4.10;3.00;;;0.60;99.90;;;;;;5048626;28;20190;-75
2023/01/30 06:59:10;;;;;;;2.70;2.50;;;0.70;99.90;;;;;;5030597;28;20214;-75
2023/01/30 07:01:36;;;;;;;2.30;2.10;;;0.70;99.90;;;;;;5047341;28;20229;-77
2023/01/30 07:04:02;;;;;;;2.95;2.47;;;0.80;99.90;;;;;;5047681;28;20187;-75
2023/01/30 07:06:27;;;;;;;3.40;3.10;;;1.00;99.90;;;;;;5047311;28;20622;-75
2023/01/30 07:08:55;;;;;;;2.67;2.47;;;1.00;99.90;;;;;;5030841;28;20559;-76
2023/01/30 07:11:20;;;;;;;2.50;2.30;;;1.10;99.90;;;;;;5047329;28;20214;-76
2023/01/30 07:13:46;;;;;;;2.33;2.13;;;1.20;99.90;;;;;;5047568;28;20191;-78
2023/01/30 07:16:11;;;;;;;2.67;2.20;;;1.30;99.90;;;;;;5047684;28;21063;-76
2023/01/30 07:18:37;;;;;;;1.47;1.37;;;1.30;99.90;;;;;;5047731;28;20212;-75
2023/01/30 07:21:03;;;;;;;4.37;2.17;;;1.40;99.90;;;;;;5030674;28;20742;-75
2023/01/30 07:23:28;;;;;;;2.40;2.20;;;1.50;99.90;;;;;;5048541;28;20242;-75
2023/01/30 07:25:54;;;;;;;6.60;2.40;;;1.50;99.90;;;;;;5030174;28;20426;-75
2023/01/30 07:28:20;;;;;;;4.23;2.17;;;1.50;99.90;;;;;;5046838;28;20274;-76
2023/01/30 07:30:45;;;;;;;1.97;1.83;;;1.60;99.90;;;;;;5047776;28;20183;-75
2023/01/30 07:33:11;;;;;;;2.90;2.70;;;1.60;99.90;;;;;;5029774;28;20654;-75
2023/01/30 07:35:37;;;;;;;3.27;2.07;;;1.60;99.90;;;;;;5047828;28;20188;-75
2023/01/30 07:38:03;;;;;;;2.30;2.10;;;1.70;99.90;;;;;;5047792;28;20275;-75
2023/01/30 07:40:29;;;;;;;2.97;2.35;;;1.70;99.90;;;;;;5047880;28;20448;-75
2023/01/30 07:43:07;;;;;;;2.50;2.23;;;1.70;99.90;;;;;;5046175;28;20207;-75
2023/01/30 07:45:47;;;;;;;2.58;2.15;;;1.80;99.90;;;;;;5046226;28;20434;-75
2023/01/30 07:48:15;;;;;;;4.45;2.38;;;1.80;99.90;;;;;;5046044;28;20199;-75
2023/01/30 07:50:41;;;;;;;2.85;2.42;;;1.80;99.90;;;;;;5047480;28;20177;-75
2023/01/30 07:53:09;;;;;;;3.70;2.50;;;1.90;99.90;;;;;;5047345;28;20707;-75
2023/01/30 07:55:35;;;;;;;3.35;2.75;;;1.90;99.90;;;;;;5047249;28;20440;-75
2023/01/30 07:58:01;;;;;;;5.10;3.00;;;1.90;99.90;;;;;;5047338;28;20211;-75
2023/01/30 08:00:27;;;;;;;3.50;2.70;;;1.90;99.90;;;;;;5047401;28;20880;-75
2023/01/30 08:02:52;;;;;;;2.90;2.60;;;1.80;99.90;;;;;;5047376;28;20850;-76
2023/01/30 08:05:18;;;;;;;5.57;3.23;;;1.80;99.90;;;;;;5045897;28;20672;-76
2023/01/30 08:07:46;;;;;;;9.83;2.70;;;1.70;99.90;;;;;;5047269;28;20309;-75
2023/01/30 08:10:12;;;;;;;5.88;3.20;;;1.70;99.90;;;;;;5047506;28;20176;-76
2023/01/30 08:12:39;;;;;;;4.10;3.30;;;1.70;99.90;;;;;;5047305;28;20200;-76
2023/01/30 08:15:05;;;;;;;3.72;2.92;;;1.70;99.90;;;;;;5029883;28;20433;-76
2023/01/30 08:17:31;;;;;;;5.18;2.95;;;1.70;99.90;;;;;;5047714;28;20192;-77
2023/01/30 08:19:56;;;;;;;3.37;2.80;;;1.70;99.90;;;;;;5047104;28;20220;-77
2023/01/30 08:22:22;;;;;;;3.03;2.70;;;1.70;99.90;;;;;;5047322;28;20572;-76
2023/01/30 08:24:47;;;;;;;2.63;2.43;;;1.70;99.90;;;;;;5046892;28;20275;-76
2023/01/30 08:27:13;;;;;;;4.10;2.67;;;1.70;99.90;;;;;;5045211;28;20190;-75
2023/01/30 08:29:39;;;;;;;3.63;2.20;;;1.70;99.90;;;;;;5047050;28;20222;-76
2023/01/30 08:32:04;;;;;;;2.80;2.50;;;1.80;99.90;;;;;;5046908;28;20200;-76
2023/01/30 08:34:30;;;;;;;2.93;2.60;;;1.80;99.90;;;;;;5046630;28;20183;-76
2023/01/30 08:36:56;;;;;;;3.77;3.40;;;1.80;99.90;;;;;;5047011;28;20191;-75
2023/01/30 08:39:21;;;;;;;3.40;2.30;;;1.80;99.90;;;;;;5046814;28;20474;-75
2023/01/30 08:41:47;;;;;;;3.87;2.20;;;1.80;99.90;;;;;;5045094;28;20238;-76
2023/01/30 08:44:13;;;;;;;1.77;1.50;;;1.80;99.90;;;;;;5045310;28;20739;-76
2023/01/30 08:46:39;;;;;;;2.60;2.03;;;1.80;99.90;;;;;;5046863;28;20185;-76
2023/01/30 08:49:05;;;;;;;3.23;1.90;;;1.90;99.90;;;;;;5045126;28;20278;-76
2023/01/30 08:51:31;;;;;;;4.55;2.88;;;1.90;99.90;;;;;;5045147;28;20446;-76
2023/01/30 08:53:56;;;;;;;3.38;2.65;;;1.90;99.90;;;;;;5045022;28;20200;-75
2023/01/30 08:56:22;;;;;;;4.10;2.07;;;2.00;99.90;;;;;;5046664;28;20235;-76
2023/01/30 08:58:48;;;;;;;2.90;2.47;;;2.10;99.90;;;;;;5045133;28;20690;-76
2023/01/30 09:01:14;;;;;;;3.33;2.80;;;2.10;99.90;;;;;;5046003;28;20216;-76
2023/01/30 09:03:40;;;;;;;2.80;2.55;;;2.20;99.90;;;;;;5050449;28;20695;-76
2023/01/30 09:06:06;;;;;;;3.63;2.75;;;2.20;99.90;;;;;;5048736;28;20625;-76
2023/01/30 09:08:31;;;;;;;3.77;3.07;;;2.20;99.90;;;;;;5048785;28;20279;-75
2023/01/30 09:10:59;;;;;;;2.83;2.50;;;2.10;99.90;;;;;;5048834;28;20432;-75
2023/01/30 09:13:25;;;;;;;2.40;2.05;;;2.00;99.90;;;;;;5050719;28;20199;-76
2023/01/30 09:15:50;;;;;;;49.75;20.23;;;2.00;99.90;;;;;;5032099;28;20250;-76
2023/01/30 09:18:16;;;;;;;3.80;2.77;;;2.10;99.90;;;;;;5050054;28;20221;-75
2023/01/30 09:20:41;;;;;;;3.30;2.73;;;2.20;99.90;;;;;;5048667;28;20913;-76
2023/01/30 09:23:08;;;;;;;3.80;2.93;;;2.20;99.90;;;;;;5032286;28;20224;-75
2023/01/30 09:25:33;;;;;;;2.83;2.63;;;2.20;99.90;;;;;;5048374;28;20663;-75
2023/01/30 09:27:59;;;;;;;2.87;2.40;;;2.30;99.90;;;;;;5048435;28;20197;-75
2023/01/30 09:30:24;;;;;;;3.60;3.30;;;2.30;99.90;;;;;;5050037;28;20208;-75
2023/01/30 09:32:50;;;;;;;2.60;2.30;;;2.30;99.90;;;;;;5049775;28;20201;-76
2023/01/30 09:35:16;;;;;;;2.50;2.30;;;2.30;99.90;;;;;;5050337;28;20184;-76
2023/01/30 09:37:49;;;;;;;2.20;2.00;;;2.40;99.90;;;;;;5049973;28;20702;-76
2023/01/30 09:40:20;;;;;;;3.25;2.67;;;2.40;99.90;;;;;;5049787;28;20257;-75
2023/01/30 09:42:52;;;;;;;2.17;1.90;;;2.40;99.90;;;;;;5048506;28;20272;-76
2023/01/30 09:45:20;;;;;;;5.25;2.85;;;2.40;99.90;;;;;;5049608;28;20644;-75
2023/01/30 09:48:13;;;;;;;2.85;2.53;;;2.40;99.90;;;;;;5049838;28;20299;-75
2023/01/30 09:51:03;;;;;;;2.70;2.05;;;2.50;99.90;;;;;;5048441;28;20258;-75
2023/01/30 09:53:35;;;;;;;1.98;1.70;;;2.60;99.90;;;;;;5048257;28;20181;-75
2023/01/30 09:56:00;;;;;;;3.08;2.75;;;2.80;99.90;;;;;;5048355;28;20245;-75
2023/01/30 09:58:52;;;;;;;2.83;2.30;;;2.90;99.90;;;;;;5048491;28;20224;-74
2023/01/30 10:01:58;;;;;;;2.97;2.40;;;3.00;99.90;;;;;;5048915;28;20450;-76
2023/01/30 10:04:36;;;;;;;2.10;1.90;;;2.90;99.90;;;;;;5049834;28;20545;-75
2023/01/30 10:07:42;;;;;;;2.40;2.00;;;2.90;99.90;;;;;;5049794;28;20186;-75
2023/01/30 10:10:20;;;;;;;2.42;2.05;;;3.00;99.90;;;;;;5050347;28;20171;-75
2023/01/30 10:13:11;;;;;;;4.20;2.90;;;2.80;99.90;;;;;;5049228;28;20572;-75
2023/01/30 10:16:02;;;;;;;2.70;2.50;;;2.80;99.90;;;;;;5048533;28;20197;-76
2023/01/30 10:18:47;;;;;;;2.30;2.10;;;2.80;99.90;;;;;;5048050;28;20255;-75
2023/01/30 10:21:23;;;;;;;2.63;2.13;;;2.90;99.90;;;;;;5049479;28;20184;-75
2023/01/30 10:23:48;;;;;;;2.85;2.03;;;3.00;99.90;;;;;;5048086;28;20179;-75
2023/01/30 10:26:20;;;;;;;2.47;2.27;;;3.10;99.90;;;;;;5049369;28;20185;-75
2023/01/30 10:29:08;;;;;;;2.40;2.20;;;3.10;99.90;;;;;;5049017;28;20393;-75
2023/01/30 10:31:53;;;;;;;2.75;2.15;;;3.10;99.90;;;;;;5049010;28;20197;-75
2023/01/30 10:34:30;;;;;;;3.17;2.20;;;3.10;99.90;;;;;;5049048;28;20181;-74
2023/01/30 10:37:08;;;;;;;4.22;3.03;;;3.20;99.90;;;;;;5030906;28;20286;-76
2023/01/30 10:39:40;;;;;;;4.90;2.75;;;3.20;99.90;;;;;;5049347;28;20231;-76
2023/01/30 10:42:12;;;;;;;3.78;2.35;;;3.30;99.90;;;;;;5048879;28;20208;-76
2023/01/30 10:44:41;;;;;;;3.53;2.30;;;3.50;99.90;;;;;;5048757;28;20209;-76
2023/01/30 10:47:39;;;;;;;2.75;2.42;;;3.70;99.90;;;;;;5048679;28;20251;-75
2023/01/30 10:50:16;;;;;;;2.20;2.00;;;3.50;99.90;;;;;;5047074;28;20194;-76
2023/01/30 10:52:51;;;;;;;3.15;2.40;;;3.60;99.90;;;;;;5046803;28;20231;-75
2023/01/30 10:55:39;;;;;;;2.33;2.13;;;3.60;99.90;;;;;;5048300;28;20177;-75
2023/01/30 10:58:26;;;;;;;5.20;2.70;;;3.40;99.90;;;;;;5048395;28;20780;-76
2023/01/30 11:01:04;;;;;;;3.60;2.15;;;3.40;99.90;;;;;;5046791;28;20206;-75
2023/01/30 11:03:51;;;;;;;2.08;1.98;;;3.40;99.90;;;;;;5048289;28;20604;-76
2023/01/30 11:06:22;;;;;;;2.15;1.95;;;3.40;99.90;;;;;;5048299;28;20258;-76
2023/01/30 11:08:49;;;;;;;4.68;2.38;;;3.40;99.90;;;;;;5051811;28;20524;-78
2023/01/30 11:11:52;;;;;;;2.05;1.85;;;3.40;99.90;;;;;;5049452;28;20254;-79
2023/01/30 11:14:18;;;;;;;2.22;2.03;;;3.60;99.90;;;;;;5051115;28;20185;-79
2023/01/30 11:16:53;;;;;;;2.58;2.38;;;3.60;99.90;;;;;;5034192;28;20670;-79
2023/01/30 11:19:29;;;;;;;5.30;1.85;;;3.60;99.90;;;;;;5050562;28;20593;-78
2023/01/30 11:22:00;;;;;;;5.28;2.20;;;3.50;99.90;;;;;;5048886;28;20205;-78
2023/01/30 11:24:39;;;;;;;3.25;2.20;;;3.60;99.90;;;;;;5048196;28;20209;-79
2023/01/30 11:27:15;;;;;;;2.00;1.90;;;3.70;99.90;;;;;;5048406;28;20209;-79
2023/01/30 11:29:41;;;;;;;4.07;2.05;;;3.80;99.90;;;;;;5047969;28;20224;-78
2023/01/30 11:32:26;;;;;;;2.40;2.20;;;3.70;99.90;;;;;;5048429;28;20212;-79
2023/01/30 11:35:25;;;;;;;2.35;1.80;;;3.70;99.90;;;;;;5052494;28;20428;-78
2023/01/30 11:37:52;;;;;;;2.13;1.95;;;3.70;99.90;;;;;;5049197;28;20242;-79
2023/01/30 11:40:19;;;;;;;3.55;2.60;;;3.80;99.90;;;;;;5049065;28;20177;-79
2023/01/30 11:42:47;;;;;;;2.20;2.00;;;3.80;99.90;;;;;;5048420;28;20209;-78
2023/01/30 11:45:13;;;;;;;2.22;2.03;;;3.80;99.90;;;;;;5032559;28;20196;-78
2023/01/30 11:47:48;;;;;;;3.10;2.40;;;3.70;99.90;;;;;;5049617;28;20187;-78
2023/01/30 11:50:17;;;;;;;3.35;1.95;;;3.90;99.90;;;;;;5031480;28;20264;-76
2023/01/30 11:52:45;;;;;;;1.60;1.50;;;3.90;99.90;;;;;;5049389;28;20268;-76
2023/01/30 11:55:18;;;;;;;4.03;1.80;;;3.90;99.90;;;;;;5049175;28;20174;-76
2023/01/30 11:57:49;;;;;;;2.38;2.08;;;3.90;99.90;;;;;;5047341;28;20187;-76
2023/01/30 12:00:44;;;;;;;4.82;2.47;;;4.00;99.90;;;;;;5048491;28;20941;-77
2023/01/30 12:03:13;;;;;;;2.47;1.70;;;3.90;99.90;;;;;;5045613;28;20232;-76
2023/01/30 12:05:41;;;;;;;1.52;1.42;;;3.90;99.90;;;;;;5048249;28;20710;-76
2023/01/30 12:08:19;;;;;;;2.03;1.90;;;4.00;99.90;;;;;;5048293;28;20186;-76
2023/01/30 12:10:47;;;;;;;1.52;1.27;;;4.10;99.90;;;;;;5046714;28;20184;-76
2023/01/30 12:13:18;;;;;;;1.20;1.10;;;4.10;99.90;;;;;;5046707;28;20389;-76
2023/01/30 12:15:47;;;;;;;3.17;1.30;;;4.10;99.90;;;;;;5046529;28;20228;-76
2023/01/30 12:18:31;;;;;;;1.52;1.42;;;4.10;99.90;;;;;;5046874;28;20217;-76
2023/01/30 12:21:22;;;;;;;1.92;1.65;;;4.10;99.90;;;;;;5047657;28;20706;-76
2023/01/30 12:24:01;;;;;;;0.88;0.88;;;4.10;99.90;;;;;;5046516;28;20193;-77
2023/01/30 12:26:36;;;;;;;1.83;1.33;;;4.10;99.90;;;;;;5048656;28;20802;-75
2023/01/30 12:29:14;;;;;;;1.17;1.08;;;4.10;99.90;;;;;;5048326;28;20323;-76
2023/01/30 12:31:46;;;;;;;1.10;1.00;;;4.20;99.90;;;;;;5047988;28;20207;-76
2023/01/30 12:34:12;;;;;;;1.60;1.30;;;4.20;99.90;;;;;;5030482;28;20194;-76
2023/01/30 12:36:56;;;;;;;1.50;1.40;;;4.30;99.90;;;;;;5050006;28;20561;-76
2023/01/30 12:39:34;;;;;;;1.33;1.15;;;4.30;99.90;;;;;;5052069;28;20461;-76
2023/01/30 12:42:16;;;;;;;1.50;1.20;;;4.20;99.90;;;;;;5052092;28;20232;-76
2023/01/30 12:45:09;;;;;;;1.50;1.40;;;4.20;99.90;;;;;;5051962;28;20527;-75
2023/01/30 12:47:38;;;;;;;1.30;1.20;;;4.20;99.90;;;;;;5052328;28;20188;-75
2023/01/30 12:50:34;;;;;;;1.40;1.30;;;4.30;99.90;;;;;;5050083;28;20190;-75
2023/01/30 12:53:24;;;;;;;1.27;1.17;;;4.30;99.90;;;;;;5050149;28;20208;-75
2023/01/30 12:56:08;;;;;;;1.65;1.55;;;4.20;99.90;;;;;;5051869;28;20330;-74
2023/01/30 12:58:58;;;;;;;1.50;1.40;;;4.10;99.90;;;;;;5049999;28;20216;-74
2023/01/30 13:01:28;;;;;;;1.50;1.40;;;4.10;99.90;;;;;;5051387;28;20247;-74
2023/01/30 13:04:17;;;;;;;2.00;1.80;;;4.10;99.90;;;;;;5052028;28;20179;-75
2023/01/30 13:07:20;;;;;;;1.45;1.35;;;4.00;99.90;;;;;;5051431;28;20669;-75
2023/01/30 13:10:13;;;;;;;1.80;1.52;;;4.00;99.90;;;;;;5051267;28;20268;-76
2023/01/30 13:12:49;;;;;;;1.40;1.30;;;4.00;99.90;;;;;;5051280;28;20228;-75
2023/01/30 13:15:32;;;;;;;1.60;1.50;;;4.00;99.90;;;;;;5051236;28;20964;-77